sensor_id;sensor_type;location;lat;lon;timestamp;pressure;altitude;pressure_sealevel;temperature;humidity
52319;BME280;38258;51.148;14.068;2023-01-29T00:01:46;99444.66;;;-4.45;100.00
52319;BME280;38258;51.148;14.068;2023-01-29T00:04:13;99435.50;;;-4.41;100.00
52319;BME280;38258;51.148;14.068;2023-01-29T00:06:41;99434.41;;;-4.46;100.00
52319;BME280;38258;51.148;14.068;2023-01-29T00:09:08;99434.06;;;-4.36;100.00
52319;BME280;38258;51.148;14.068;2023-01-29T00:11:35;99435.00;;;-4.34;100.00
52319;BME280;38258;51.148;14.068;2023-01-29T00:14:02;99434.91;;;-4.35;100.00
52319;BME280;38258;51.148;14.068;2023-01-29T00:16:29;99443.09;;;-4.24;100.00
52319;BME280;38258;51.148;14.068;2023-01-29T00:18:56;99446.97;;;-4.33;100.00
52319;BME280;38258;51.148;14.068;2023-01-29T00:21:23;99438.34;;;-4.35;100.00
52319;BME280;38258;51.148;14.068;2023-01-29T00:23:53;99434.84;;;-4.37;100.00
52319;BME280;38258;51.148;14.068;2023-01-29T00:26:20;99428.72;;;-4.41;100.00
52319;BME280;38258;51.148;14.068;2023-01-29T00:28:47;99426.66;;;-4.30;100.00
52319;BME280;38258;51.148;14.068;2023-01-29T00:31:16;99427.19;;;-4.37;100.00
52319;BME280;38258;51.148;14.068;2023-01-29T00:33:43;99421.34;;;-4.34;100.00
52319;BME280;38258;51.148;14.068;2023-01-29T00:36:12;99419.81;;;-4.31;100.00
52319;BME280;38258;51.148;14.068;2023-01-29T00:38:39;99411.34;;;-4.30;100.00
52319;BME280;38258;51.148;14.068;2023-01-29T00:41:08;99413.03;;;-4.48;100.00
52319;BME280;38258;51.148;14.068;2023-01-29T00:43:53;99406.00;;;-4.52;100.00
52319;BME280;38258;51.148;14.068;2023-01-29T00:46:37;99408.19;;;-4.42;100.00
52319;BME280;38258;51.148;14.068;2023-01-29T00:49:05;99410.50;;;-4.30;100.00
52319;BME280;38258;51.148;14.068;2023-01-29T00:51:32;99390.66;;;-4.52;100.00
52319;BME280;38258;51.148;14.068;2023-01-29T00:53:59;99402.94;;;-4.45;100.00
52319;BME280;38258;51.148;14.068;2023-01-29T00:56:29;99395.44;;;-4.42;100.00
52319;BME280;38258;51.148;14.068;2023-01-29T00:58:57;99401.19;;;-4.46;100.00
52319;BME280;38258;51.148;14.068;2023-01-29T01:01:24;99404.94;;;-4.40;100.00
52319;BME280;38258;51.148;14.068;2023-01-29T01:04:04;99410.97;;;-4.37;100.00
52319;BME280;38258;51.148;14.068;2023-01-29T01:06:32;99406.31;;;-4.46;100.00
52319;BME280;38258;51.148;14.068;2023-01-29T01:09:00;99413.41;;;-4.41;100.00
52319;BME280;38258;51.148;14.068;2023-01-29T01:11:45;99422.38;;;-4.31;100.00
52319;BME280;38258;51.148;14.068;2023-01-29T01:14:12;99408.78;;;-4.30;100.00
52319;BME280;38258;51.148;14.068;2023-01-29T01:16:41;99418.91;;;-4.31;100.00
52319;BME280;38258;51.148;14.068;2023-01-29T01:19:08;99419.91;;;-4.29;100.00
52319;BME280;38258;51.148;14.068;2023-01-29T01:21:35;99411.72;;;-4.22;100.00
52319;BME280;38258;51.148;14.068;2023-01-29T01:24:02;99410.84;;;-4.22;100.00
52319;BME280;38258;51.148;14.068;2023-01-29T01:26:30;99401.50;;;-4.22;100.00
52319;BME280;38258;51.148;14.068;2023-01-29T01:28:58;99398.44;;;-4.15;100.00
52319;BME280;38258;51.148;14.068;2023-01-29T01:31:25;99394.53;;;-4.24;100.00
52319;BME280;38258;51.148;14.068;2023-01-29T01:33:53;99391.84;;;-4.28;100.00
52319;BME280;38258;51.148;14.068;2023-01-29T01:36:20;99396.91;;;-4.29;100.00
52319;BME280;38258;51.148;14.068;2023-01-29T01:38:47;99396.09;;;-4.28;100.00
52319;BME280;38258;51.148;14.068;2023-01-29T01:41:17;99393.09;;;-4.19;100.00
52319;BME280;38258;51.148;14.068;2023-01-29T01:43:52;99383.81;;;-4.17;100.00
52319;BME280;38258;51.148;14.068;2023-01-29T01:46:21;99388.78;;;-4.20;100.00
52319;BME280;38258;51.148;14.068;2023-01-29T01:48:52;99385.13;;;-4.26;100.00
52319;BME280;38258;51.148;14.068;2023-01-29T01:51:22;99376.16;;;-4.17;100.00
52319;BME280;38258;51.148;14.068;2023-01-29T01:53:53;99382.81;;;-4.21;100.00
52319;BME280;38258;51.148;14.068;2023-01-29T01:56:27;99381.63;;;-4.28;100.00
52319;BME280;38258;51.148;14.068;2023-01-29T01:59:04;99386.28;;;-4.19;100.00
52319;BME280;38258;51.148;14.068;2023-01-29T02:01:34;99385.31;;;-4.22;100.00
52319;BME280;38258;51.148;14.068;2023-01-29T02:04:05;99395.53;;;-4.22;100.00
52319;BME280;38258;51.148;14.068;2023-01-29T02:06:52;99390.06;;;-4.30;100.00
52319;BME280;38258;51.148;14.068;2023-01-29T02:09:41;99372.81;;;-4.34;100.00
52319;BME280;38258;51.148;14.068;2023-01-29T02:12:12;99369.22;;;-4.38;100.00
52319;BME280;38258;51.148;14.068;2023-01-29T02:14:42;99364.06;;;-4.40;100.00
52319;BME280;38258;51.148;14.068;2023-01-29T02:17:12;99363.97;;;-4.41;100.00
52319;BME280;38258;51.148;14.068;2023-01-29T02:19:47;99361.06;;;-4.49;100.00
52319;BME280;38258;51.148;14.068;2023-01-29T02:22:45;99361.16;;;-4.47;100.00
52319;BME280;38258;51.148;14.068;2023-01-29T02:25:46;99363.56;;;-4.50;100.00
52319;BME280;38258;51.148;14.068;2023-01-29T02:28:23;99372.75;;;-4.54;100.00
52319;BME280;38258;51.148;14.068;2023-01-29T02:30:58;99366.84;;;-4.53;100.00
52319;BME280;38258;51.148;14.068;2023-01-29T02:33:36;99376.25;;;-4.52;100.00
52319;BME280;38258;51.148;14.068;2023-01-29T02:36:13;99367.28;;;-4.62;100.00
52319;BME280;38258;51.148;14.068;2023-01-29T02:38:48;99368.00;;;-4.64;100.00
52319;BME280;38258;51.148;14.068;2023-01-29T02:41:24;99360.56;;;-4.60;100.00
52319;BME280;38258;51.148;14.068;2023-01-29T02:43:56;99366.53;;;-4.59;100.00
52319;BME280;38258;51.148;14.068;2023-01-29T02:46:29;99373.91;;;-4.65;100.00
52319;BME280;38258;51.148;14.068;2023-01-29T02:49:07;99366.16;;;-4.67;100.00
52319;BME280;38258;51.148;14.068;2023-01-29T02:51:38;99357.56;;;-4.69;100.00
52319;BME280;38258;51.148;14.068;2023-01-29T02:54:16;99354.47;;;-4.80;100.00
52319;BME280;38258;51.148;14.068;2023-01-29T02:56:51;99367.16;;;-4.82;100.00
52319;BME280;38258;51.148;14.068;2023-01-29T02:59:24;99366.38;;;-4.80;100.00
52319;BME280;38258;51.148;14.068;2023-01-29T03:01:54;99367.34;;;-4.78;100.00
52319;BME280;38258;51.148;14.068;2023-01-29T03:04:26;99375.19;;;-4.74;100.00
52319;BME280;38258;51.148;14.068;2023-01-29T03:06:58;99371.69;;;-4.76;100.00
52319;BME280;38258;51.148;14.068;2023-01-29T03:09:32;99376.78;;;-4.76;100.00
52319;BME280;38258;51.148;14.068;2023-01-29T03:12:04;99375.78;;;-4.79;100.00
52319;BME280;38258;51.148;14.068;2023-01-29T03:14:47;99380.91;;;-4.79;100.00
52319;BME280;38258;51.148;14.068;2023-01-29T03:17:36;99371.69;;;-4.94;100.00
52319;BME280;38258;51.148;14.068;2023-01-29T03:20:10;99373.44;;;-4.93;100.00
52319;BME280;38258;51.148;14.068;2023-01-29T03:22:42;99376.56;;;-4.99;100.00
52319;BME280;38258;51.148;14.068;2023-01-29T03:25:12;99362.25;;;-4.95;100.00
52319;BME280;38258;51.148;14.068;2023-01-29T03:27:59;99364.41;;;-5.03;100.00
52319;BME280;38258;51.148;14.068;2023-01-29T03:30:49;99358.22;;;-5.08;100.00
52319;BME280;38258;51.148;14.068;2023-01-29T03:33:48;99365.78;;;-5.09;100.00
52319;BME280;38258;51.148;14.068;2023-01-29T03:36:18;99365.50;;;-5.16;100.00
52319;BME280;38258;51.148;14.068;2023-01-29T03:38:47;99378.63;;;-5.08;100.00
52319;BME280;38258;51.148;14.068;2023-01-29T03:41:22;99376.50;;;-5.17;100.00
52319;BME280;38258;51.148;14.068;2023-01-29T03:43:55;99389.03;;;-5.21;100.00
52319;BME280;38258;51.148;14.068;2023-01-29T03:46:30;99373.56;;;-5.25;100.00
52319;BME280;38258;51.148;14.068;2023-01-29T03:49:06;99367.50;;;-5.27;100.00
52319;BME280;38258;51.148;14.068;2023-01-29T03:51:37;99372.38;;;-5.31;100.00
52319;BME280;38258;51.148;14.068;2023-01-29T03:54:12;99372.13;;;-5.36;100.00
52319;BME280;38258;51.148;14.068;2023-01-29T03:56:49;99374.28;;;-5.44;100.00
52319;BME280;38258;51.148;14.068;2023-01-29T03:59:27;99376.75;;;-5.45;100.00
52319;BME280;38258;51.148;14.068;2023-01-29T04:02:19;99378.19;;;-5.34;100.00
52319;BME280;38258;51.148;14.068;2023-01-29T04:04:56;99373.88;;;-5.35;100.00
52319;BME280;38258;51.148;14.068;2023-01-29T04:07:25;99374.03;;;-5.32;100.00
52319;BME280;38258;51.148;14.068;2023-01-29T04:10:03;99361.25;;;-5.50;100.00
52319;BME280;38258;51.148;14.068;2023-01-29T04:12:37;99366.00;;;-5.40;100.00
52319;BME280;38258;51.148;14.068;2023-01-29T04:15:10;99365.84;;;-5.43;100.00
52319;BME280;38258;51.148;14.068;2023-01-29T04:17:44;99347.13;;;-5.60;100.00
52319;BME280;38258;51.148;14.068;2023-01-29T04:20:21;99356.22;;;-5.48;100.00
52319;BME280;38258;51.148;14.068;2023-01-29T04:22:50;99346.75;;;-5.51;100.00
52319;BME280;38258;51.148;14.068;2023-01-29T04:25:20;99345.72;;;-5.55;100.00
52319;BME280;38258;51.148;14.068;2023-01-29T04:27:57;99343.06;;;-5.56;100.00
52319;BME280;38258;51.148;14.068;2023-01-29T04:30:37;99318.63;;;-5.69;100.00
52319;BME280;38258;51.148;14.068;2023-01-29T04:33:17;99338.63;;;-5.60;100.00
52319;BME280;38258;51.148;14.068;2023-01-29T04:36:02;99330.16;;;-5.59;100.00
52319;BME280;38258;51.148;14.068;2023-01-29T04:38:40;99334.22;;;-5.63;100.00
52319;BME280;38258;51.148;14.068;2023-01-29T04:41:15;99326.91;;;-5.57;100.00
52319;BME280;38258;51.148;14.068;2023-01-29T04:43:52;99341.88;;;-5.63;100.00
52319;BME280;38258;51.148;14.068;2023-01-29T04:46:26;99326.72;;;-5.60;100.00
52319;BME280;38258;51.148;14.068;2023-01-29T04:49:09;99315.53;;;-5.63;100.00
52319;BME280;38258;51.148;14.068;2023-01-29T04:51:44;99318.22;;;-5.60;100.00
52319;BME280;38258;51.148;14.068;2023-01-29T04:54:19;99314.34;;;-5.70;100.00
52319;BME280;38258;51.148;14.068;2023-01-29T04:56:52;99309.09;;;-5.73;100.00
52319;BME280;38258;51.148;14.068;2023-01-29T04:59:25;99290.34;;;-5.74;100.00
52319;BME280;38258;51.148;14.068;2023-01-29T05:01:53;99293.78;;;-5.73;100.00
52319;BME280;38258;51.148;14.068;2023-01-29T05:04:21;99299.44;;;-5.79;100.00
52319;BME280;38258;51.148;14.068;2023-01-29T05:06:49;99168.13;;;-6.57;100.00
52319;BME280;38258;51.148;14.068;2023-01-29T05:09:16;99232.78;;;-6.21;100.00
52319;BME280;38258;51.148;14.068;2023-01-29T05:11:45;99292.03;;;-5.91;100.00
52319;BME280;38258;51.148;14.068;2023-01-29T05:14:16;99292.75;;;-5.93;100.00
52319;BME280;38258;51.148;14.068;2023-01-29T05:16:45;99289.22;;;-5.96;100.00
52319;BME280;38258;51.148;14.068;2023-01-29T05:19:14;99284.94;;;-5.97;100.00
52319;BME280;38258;51.148;14.068;2023-01-29T05:21:44;99291.06;;;-5.76;100.00
52319;BME280;38258;51.148;14.068;2023-01-29T05:24:14;99282.16;;;-5.85;100.00
52319;BME280;38258;51.148;14.068;2023-01-29T05:26:42;99309.00;;;-5.75;100.00
52319;BME280;38258;51.148;14.068;2023-01-29T05:29:27;99243.75;;;-6.06;100.00
52319;BME280;38258;51.148;14.068;2023-01-29T05:31:54;99264.78;;;-5.75;100.00
52319;BME280;38258;51.148;14.068;2023-01-29T05:34:20;99272.84;;;-5.84;100.00
52319;BME280;38258;51.148;14.068;2023-01-29T05:36:48;99269.56;;;-5.82;100.00
52319;BME280;38258;51.148;14.068;2023-01-29T05:39:15;99262.72;;;-5.83;100.00
52319;BME280;38258;51.148;14.068;2023-01-29T05:41:42;99272.84;;;-5.84;100.00
52319;BME280;38258;51.148;14.068;2023-01-29T05:44:08;99270.63;;;-5.78;100.00
52319;BME280;38258;51.148;14.068;2023-01-29T05:46:35;99274.56;;;-5.83;100.00
52319;BME280;38258;51.148;14.068;2023-01-29T05:49:02;99275.31;;;-5.86;100.00
52319;BME280;38258;51.148;14.068;2023-01-29T05:51:28;99284.16;;;-5.79;100.00
52319;BME280;38258;51.148;14.068;2023-01-29T05:53:56;99282.31;;;-5.82;100.00
52319;BME280;38258;51.148;14.068;2023-01-29T05:56:23;99278.88;;;-5.82;100.00
52319;BME280;38258;51.148;14.068;2023-01-29T05:58:49;99268.22;;;-5.91;100.00
52319;BME280;38258;51.148;14.068;2023-01-29T06:01:18;99263.13;;;-5.91;100.00
52319;BME280;38258;51.148;14.068;2023-01-29T06:03:46;99280.72;;;-5.96;100.00
52319;BME280;38258;51.148;14.068;2023-01-29T06:06:13;99290.50;;;-5.87;100.00
52319;BME280;38258;51.148;14.068;2023-01-29T06:08:40;99290.47;;;-6.05;100.00
52319;BME280;38258;51.148;14.068;2023-01-29T06:11:09;99299.19;;;-6.00;100.00
52319;BME280;38258;51.148;14.068;2023-01-29T06:13:36;99294.06;;;-6.02;100.00
52319;BME280;38258;51.148;14.068;2023-01-29T06:16:03;99287.56;;;-5.95;100.00
52319;BME280;38258;51.148;14.068;2023-01-29T06:18:30;99285.13;;;-5.93;100.00
52319;BME280;38258;51.148;14.068;2023-01-29T06:20:59;99286.78;;;-5.94;100.00
52319;BME280;38258;51.148;14.068;2023-01-29T06:23:25;99297.44;;;-5.85;100.00
52319;BME280;38258;51.148;14.068;2023-01-29T06:25:52;99309.16;;;-5.88;100.00
52319;BME280;38258;51.148;14.068;2023-01-29T06:28:20;99315.44;;;-5.82;100.00
52319;BME280;38258;51.148;14.068;2023-01-29T06:30:46;99324.38;;;-5.73;100.00
52319;BME280;38258;51.148;14.068;2023-01-29T06:33:12;99335.13;;;-5.62;100.00
52319;BME280;38258;51.148;14.068;2023-01-29T06:35:39;99342.91;;;-5.59;100.00
52319;BME280;38258;51.148;14.068;2023-01-29T06:38:05;99328.88;;;-5.68;100.00
52319;BME280;38258;51.148;14.068;2023-01-29T06:40:32;99337.97;;;-5.73;100.00
52319;BME280;38258;51.148;14.068;2023-01-29T06:42:59;99340.13;;;-5.64;100.00
52319;BME280;38258;51.148;14.068;2023-01-29T06:45:26;99313.69;;;-5.83;100.00
52319;BME280;38258;51.148;14.068;2023-01-29T06:47:53;99314.41;;;-5.85;100.00
52319;BME280;38258;51.148;14.068;2023-01-29T06:50:21;99355.97;;;-5.53;100.00
52319;BME280;38258;51.148;14.068;2023-01-29T06:52:47;99325.22;;;-5.73;100.00
52319;BME280;38258;51.148;14.068;2023-01-29T06:55:14;99360.19;;;-5.54;100.00
52319;BME280;38258;51.148;14.068;2023-01-29T06:57:42;99349.91;;;-5.55;100.00
52319;BME280;38258;51.148;14.068;2023-01-29T07:00:10;99366.66;;;-5.44;100.00
52319;BME280;38258;51.148;14.068;2023-01-29T07:02:38;99370.88;;;-5.44;100.00
52319;BME280;38258;51.148;14.068;2023-01-29T07:05:05;99350.16;;;-5.50;100.00
52319;BME280;38258;51.148;14.068;2023-01-29T07:07:34;99384.03;;;-5.36;100.00
52319;BME280;38258;51.148;14.068;2023-01-29T07:10:00;99386.78;;;-5.32;100.00
52319;BME280;38258;51.148;14.068;2023-01-29T07:12:27;99386.88;;;-5.30;100.00
52319;BME280;38258;51.148;14.068;2023-01-29T07:14:53;99385.94;;;-5.32;100.00
52319;BME280;38258;51.148;14.068;2023-01-29T07:17:20;99388.16;;;-5.22;100.00
52319;BME280;38258;51.148;14.068;2023-01-29T07:19:47;99386.72;;;-5.17;100.00
52319;BME280;38258;51.148;14.068;2023-01-29T07:22:14;99333.22;;;-5.66;100.00
52319;BME280;38258;51.148;14.068;2023-01-29T07:24:40;99393.41;;;-5.19;100.00
52319;BME280;38258;51.148;14.068;2023-01-29T07:27:07;99387.81;;;-5.12;100.00
52319;BME280;38258;51.148;14.068;2023-01-29T07:29:33;99371.41;;;-5.17;100.00
52319;BME280;38258;51.148;14.068;2023-01-29T07:32:00;99359.94;;;-5.25;100.00
52319;BME280;38258;51.148;14.068;2023-01-29T07:34:26;99363.47;;;-5.23;100.00
52319;BME280;38258;51.148;14.068;2023-01-29T07:36:54;99366.16;;;-5.20;100.00
52319;BME280;38258;51.148;14.068;2023-01-29T07:39:21;99343.44;;;-5.32;100.00
52319;BME280;38258;51.148;14.068;2023-01-29T07:41:48;99356.81;;;-5.19;100.00
52319;BME280;38258;51.148;14.068;2023-01-29T07:44:15;99352.66;;;-5.01;100.00
52319;BME280;38258;51.148;14.068;2023-01-29T07:46:41;99339.97;;;-4.81;100.00
52319;BME280;38258;51.148;14.068;2023-01-29T07:49:08;99334.84;;;-4.99;100.00
52319;BME280;38258;51.148;14.068;2023-01-29T07:51:34;99343.41;;;-4.80;100.00
52319;BME280;38258;51.148;14.068;2023-01-29T07:54:03;99341.22;;;-4.91;100.00
52319;BME280;38258;51.148;14.068;2023-01-29T07:56:29;99340.25;;;-4.75;100.00
52319;BME280;38258;51.148;14.068;2023-01-29T07:58:56;99341.16;;;-4.74;100.00
52319;BME280;38258;51.148;14.068;2023-01-29T08:01:22;99331.56;;;-4.60;100.00
52319;BME280;38258;51.148;14.068;2023-01-29T08:03:49;99330.50;;;-4.29;100.00
52319;BME280;38258;51.148;14.068;2023-01-29T08:06:15;99327.41;;;-4.40;100.00
52319;BME280;38258;51.148;14.068;2023-01-29T08:08:42;99320.19;;;-4.31;100.00
52319;BME280;38258;51.148;14.068;2023-01-29T08:11:11;99308.19;;;-4.14;100.00
52319;BME280;38258;51.148;14.068;2023-01-29T08:13:37;99320.19;;;-4.31;100.00
52319;BME280;38258;51.148;14.068;2023-01-29T08:16:05;99314.53;;;-4.23;100.00
52319;BME280;38258;51.148;14.068;2023-01-29T08:18:32;99308.81;;;-4.00;100.00
52319;BME280;38258;51.148;14.068;2023-01-29T08:20:59;99299.78;;;-4.11;100.00
52319;BME280;38258;51.148;14.068;2023-01-29T08:23:26;99303.72;;;-4.18;100.00
52319;BME280;38258;51.148;14.068;2023-01-29T08:25:52;99299.28;;;-4.22;100.00
52319;BME280;38258;51.148;14.068;2023-01-29T08:28:20;99299.97;;;-4.26;100.00
52319;BME280;38258;51.148;14.068;2023-01-29T08:30:47;99279.28;;;-4.13;100.00
52319;BME280;38258;51.148;14.068;2023-01-29T08:33:14;99312.09;;;-4.02;100.00
52319;BME280;38258;51.148;14.068;2023-01-29T08:35:40;99302.88;;;-4.18;100.00
52319;BME280;38258;51.148;14.068;2023-01-29T08:38:08;99308.53;;;-4.06;100.00
52319;BME280;38258;51.148;14.068;2023-01-29T08:40:34;99311.00;;;-3.88;100.00
52319;BME280;38258;51.148;14.068;2023-01-29T08:43:02;99315.34;;;-3.67;100.00
52319;BME280;38258;51.148;14.068;2023-01-29T08:45:32;99284.69;;;-3.87;100.00
52319;BME280;38258;51.148;14.068;2023-01-29T08:48:00;99281.88;;;-4.11;100.00
52319;BME280;38258;51.148;14.068;2023-01-29T08:50:26;99315.78;;;-3.95;100.00
52319;BME280;38258;51.148;14.068;2023-01-29T08:52:56;99322.38;;;-4.01;100.00
52319;BME280;38258;51.148;14.068;2023-01-29T08:55:23;99317.69;;;-3.91;100.00
52319;BME280;38258;51.148;14.068;2023-01-29T08:57:50;99310.16;;;-3.88;100.00
52319;BME280;38258;51.148;14.068;2023-01-29T09:00:17;99306.88;;;-3.86;100.00
52319;BME280;38258;51.148;14.068;2023-01-29T09:02:45;99268.44;;;-3.87;100.00
52319;BME280;38258;51.148;14.068;2023-01-29T09:05:12;99239.03;;;-4.17;100.00
52319;BME280;38258;51.148;14.068;2023-01-29T09:07:38;99278.47;;;-3.92;100.00
52319;BME280;38258;51.148;14.068;2023-01-29T09:10:06;99276.66;;;-3.75;100.00
52319;BME280;38258;51.148;14.068;2023-01-29T09:12:33;99275.94;;;-3.72;100.00
52319;BME280;38258;51.148;14.068;2023-01-29T09:14:59;99276.06;;;-3.69;100.00
52319;BME280;38258;51.148;14.068;2023-01-29T09:17:26;99277.91;;;-3.65;100.00
52319;BME280;38258;51.148;14.068;2023-01-29T09:19:54;99298.38;;;-3.65;100.00
52319;BME280;38258;51.148;14.068;2023-01-29T09:22:20;99306.41;;;-3.77;100.00
52319;BME280;38258;51.148;14.068;2023-01-29T09:24:47;99279.81;;;-3.80;100.00
52319;BME280;38258;51.148;14.068;2023-01-29T09:27:14;99287.47;;;-3.41;100.00
52319;BME280;38258;51.148;14.068;2023-01-29T09:29:40;99280.06;;;-3.55;100.00
52319;BME280;38258;51.148;14.068;2023-01-29T09:32:07;99254.66;;;-3.91;100.00
52319;BME280;38258;51.148;14.068;2023-01-29T09:34:33;99294.28;;;-3.61;100.00
52319;BME280;38258;51.148;14.068;2023-01-29T09:37:01;99289.91;;;-3.64;100.00
52319;BME280;38258;51.148;14.068;2023-01-29T09:39:28;99286.44;;;-3.45;100.00
52319;BME280;38258;51.148;14.068;2023-01-29T09:41:58;99293.66;;;-3.56;100.00
52319;BME280;38258;51.148;14.068;2023-01-29T09:44:42;99291.00;;;-3.37;100.00
52319;BME280;38258;51.148;14.068;2023-01-29T09:47:15;99284.00;;;-3.42;100.00
52319;BME280;38258;51.148;14.068;2023-01-29T09:49:46;99269.56;;;-3.41;100.00
52319;BME280;38258;51.148;14.068;2023-01-29T09:52:18;99264.13;;;-3.49;100.00
52319;BME280;38258;51.148;14.068;2023-01-29T09:54:50;99270.53;;;-3.37;100.00
52319;BME280;38258;51.148;14.068;2023-01-29T09:57:23;99184.34;;;-3.81;100.00
52319;BME280;38258;51.148;14.068;2023-01-29T09:59:50;99241.34;;;-3.21;100.00
52319;BME280;38258;51.148;14.068;2023-01-29T10:02:28;99229.56;;;-3.18;100.00
52319;BME280;38258;51.148;14.068;2023-01-29T10:05:11;99224.47;;;-2.95;100.00
52319;BME280;38258;51.148;14.068;2023-01-29T10:08:02;99232.00;;;-2.77;100.00
52319;BME280;38258;51.148;14.068;2023-01-29T10:10:38;99239.97;;;-2.92;100.00
52319;BME280;38258;51.148;14.068;2023-01-29T10:13:16;99224.63;;;-2.90;100.00
52319;BME280;38258;51.148;14.068;2023-01-29T10:15:56;99229.53;;;-2.74;100.00
52319;BME280;38258;51.148;14.068;2023-01-29T10:18:42;99238.44;;;-2.87;100.00
52319;BME280;38258;51.148;14.068;2023-01-29T10:21:28;99243.50;;;-2.88;100.00
52319;BME280;38258;51.148;14.068;2023-01-29T10:24:05;99241.06;;;-2.85;100.00
52319;BME280;38258;51.148;14.068;2023-01-29T10:26:34;99243.59;;;-2.64;100.00
52319;BME280;38258;51.148;14.068;2023-01-29T10:29:05;99243.50;;;-2.88;100.00
52319;BME280;38258;51.148;14.068;2023-01-29T10:31:36;99246.66;;;-2.73;100.00
52319;BME280;38258;51.148;14.068;2023-01-29T10:34:09;99253.63;;;-2.91;100.00
52319;BME280;38258;51.148;14.068;2023-01-29T10:36:41;99254.88;;;-3.03;100.00
52319;BME280;38258;51.148;14.068;2023-01-29T10:39:14;99238.34;;;-2.90;100.00
52319;BME280;38258;51.148;14.068;2023-01-29T10:41:57;99245.09;;;-2.92;100.00
52319;BME280;38258;51.148;14.068;2023-01-29T10:44:35;99234.56;;;-2.77;100.00
52319;BME280;38258;51.148;14.068;2023-01-29T10:47:17;99234.50;;;-2.78;100.00
52319;BME280;38258;51.148;14.068;2023-01-29T10:49:58;99232.41;;;-2.66;100.00
52319;BME280;38258;51.148;14.068;2023-01-29T10:52:40;99214.06;;;-2.54;100.00
52319;BME280;38258;51.148;14.068;2023-01-29T10:55:24;99206.06;;;-2.39;100.00
52319;BME280;38258;51.148;14.068;2023-01-29T10:58:03;99191.94;;;-2.52;100.00
52319;BME280;38258;51.148;14.068;2023-01-29T11:00:35;99051.31;;;-3.40;100.00
52319;BME280;38258;51.148;14.068;2023-01-29T11:03:13;99174.88;;;-2.51;100.00
52319;BME280;38258;51.148;14.068;2023-01-29T11:05:48;99156.78;;;-2.56;100.00
52319;BME280;38258;51.148;14.068;2023-01-29T11:08:20;98996.66;;;-3.65;100.00
52319;BME280;38258;51.148;14.068;2023-01-29T11:10:56;99150.16;;;-2.74;100.00
52319;BME280;38258;51.148;14.068;2023-01-29T11:13:30;99157.00;;;-2.50;100.00
52319;BME280;38258;51.148;14.068;2023-01-29T11:15:59;99071.06;;;-3.13;100.00
52319;BME280;38258;51.148;14.068;2023-01-29T11:18:25;99029.03;;;-3.20;100.00
52319;BME280;38258;51.148;14.068;2023-01-29T11:21:00;99168.97;;;-2.50;100.00
52319;BME280;38258;51.148;14.068;2023-01-29T11:23:30;99160.03;;;-2.37;100.00
52319;BME280;38258;51.148;14.068;2023-01-29T11:25:59;99046.69;;;-3.03;100.00
52319;BME280;38258;51.148;14.068;2023-01-29T11:28:37;99068.66;;;-2.86;100.00
52319;BME280;38258;51.148;14.068;2023-01-29T11:31:17;99086.56;;;-2.86;100.00
52319;BME280;38258;51.148;14.068;2023-01-29T11:33:46;99115.16;;;-2.50;100.00
52319;BME280;38258;51.148;14.068;2023-01-29T11:36:30;99085.91;;;-2.57;100.00
52319;BME280;38258;51.148;14.068;2023-01-29T11:39:12;99125.41;;;-2.26;100.00
52319;BME280;38258;51.148;14.068;2023-01-29T11:41:54;99134.06;;;-1.96;100.00
52319;BME280;38258;51.148;14.068;2023-01-29T11:44:26;99154.59;;;-1.96;100.00
52319;BME280;38258;51.148;14.068;2023-01-29T11:46:53;99106.28;;;-2.10;100.00
52319;BME280;38258;51.148;14.068;2023-01-29T11:49:27;99141.16;;;-2.15;100.00
52319;BME280;38258;51.148;14.068;2023-01-29T11:51:57;99131.06;;;-1.85;100.00
52319;BME280;38258;51.148;14.068;2023-01-29T11:54:29;99125.22;;;-1.80;100.00
52319;BME280;38258;51.148;14.068;2023-01-29T11:56:59;99100.72;;;-1.98;100.00
52319;BME280;38258;51.148;14.068;2023-01-29T11:59:39;99106.28;;;-2.10;100.00
52319;BME280;38258;51.148;14.068;2023-01-29T12:02:20;99121.13;;;-2.25;100.00
52319;BME280;38258;51.148;14.068;2023-01-29T12:04:48;99095.03;;;-2.39;100.00
52319;BME280;38258;51.148;14.068;2023-01-29T12:07:17;99117.47;;;-2.08;100.00
52319;BME280;38258;51.148;14.068;2023-01-29T12:09:52;99085.78;;;-2.10;100.00
52319;BME280;38258;51.148;14.068;2023-01-29T12:12:30;99095.44;;;-1.75;100.00
52319;BME280;38258;51.148;14.068;2023-01-29T12:15:14;99098.91;;;-2.01;100.00
52319;BME280;38258;51.148;14.068;2023-01-29T12:17:49;99092.28;;;-1.68;100.00
52319;BME280;38258;51.148;14.068;2023-01-29T12:20:22;99054.91;;;-1.87;100.00
52319;BME280;38258;51.148;14.068;2023-01-29T12:22:54;99036.63;;;-1.98;100.00
52319;BME280;38258;51.148;14.068;2023-01-29T12:25:34;99029.41;;;-1.82;100.00
52319;BME280;38258;51.148;14.068;2023-01-29T12:28:09;99046.06;;;-1.95;100.00
52319;BME280;38258;51.148;14.068;2023-01-29T12:31:00;99043.50;;;-1.95;100.00
52319;BME280;38258;51.148;14.068;2023-01-29T12:33:39;99047.59;;;-1.75;100.00
52319;BME280;38258;51.148;14.068;2023-01-29T12:36:11;99063.38;;;-1.62;100.00
52319;BME280;38258;51.148;14.068;2023-01-29T12:38:39;99050.31;;;-1.70;100.00
52319;BME280;38258;51.148;14.068;2023-01-29T12:41:12;99065.81;;;-1.65;100.00
52319;BME280;38258;51.148;14.068;2023-01-29T12:43:48;99061.53;;;-1.39;100.00
52319;BME280;38258;51.148;14.068;2023-01-29T12:46:21;98914.81;;;-2.40;100.00
52319;BME280;38258;51.148;14.068;2023-01-29T12:48:51;99064.16;;;-1.65;100.00
52319;BME280;38258;51.148;14.068;2023-01-29T12:51:24;99047.84;;;-1.67;100.00
52319;BME280;38258;51.148;14.068;2023-01-29T12:53:56;99032.75;;;-1.85;100.00
52319;BME280;38258;51.148;14.068;2023-01-29T12:56:28;99059.25;;;-1.57;100.00
52319;BME280;38258;51.148;14.068;2023-01-29T12:59:00;99020.25;;;-1.74;100.00
52319;BME280;38258;51.148;14.068;2023-01-29T13:01:32;99054.03;;;-1.60;100.00
52319;BME280;38258;51.148;14.068;2023-01-29T13:04:02;99052.78;;;-1.46;100.00